createdAt,value
2022-12-04T00:01:17.962Z,65.29
2022-12-04T00:04:25.805Z,63.52
2022-12-04T00:07:26.991Z,64.14
2022-12-04T00:10:24.154Z,64.70
2022-12-04T00:13:09.572Z,63.46
2022-12-04T00:15:58.339Z,63.77
2022-12-04T00:18:43.973Z,63.31
2022-12-04T00:21:37.852Z,63.36
2022-12-04T00:24:32.911Z,62.30
2022-12-04T00:27:21.838Z,63.36
2022-12-04T00:33:11.332Z,61.66
2022-12-04T00:35:45.704Z,61.97
2022-12-04T00:41:38.526Z,60.70
2022-12-04T00:44:30.031Z,60.58
2022-12-04T00:47:12.408Z,59.94
2022-12-04T00:50:04.263Z,58.25
2022-12-04T00:52:50.972Z,59.05
2022-12-04T00:55:50.656Z,58.31
2022-12-04T00:58:39.801Z,59.57
2022-12-04T01:01:44.790Z,58.13
2022-12-04T01:04:53.348Z,57.99
2022-12-04T01:07:32.625Z,58.58
2022-12-04T01:10:27.525Z,59.14
2022-12-04T01:13:13.700Z,58.66
2022-12-04T01:15:54.568Z,58.46
2022-12-04T01:18:37.762Z,58.20
2022-12-04T01:21:15.864Z,58.09
2022-12-04T01:24:19.206Z,55.19
2022-12-04T01:27:03.875Z,55.90
2022-12-04T01:29:43.365Z,57.80
2022-12-04T01:32:29.511Z,57.06
2022-12-04T01:35:34.615Z,54.32
2022-12-04T01:38:19.749Z,54.37
2022-12-04T01:40:57.250Z,54.01
2022-12-04T01:43:53.298Z,55.32
2022-12-04T01:46:34.825Z,55.94
2022-12-04T01:49:21.406Z,55.54
2022-12-04T01:52:11.748Z,55.77
2022-12-04T01:54:56.283Z,56.45
2022-12-04T01:57:43.007Z,55.45
2022-12-04T02:00:38.562Z,52.71
2022-12-04T02:06:19.239Z,52.61
2022-12-04T02:09:06.293Z,52.46
2022-12-04T02:12:01.746Z,52.70
2022-12-04T02:15:12.908Z,53.26
2022-12-04T02:18:16.226Z,54.23
2022-12-04T02:21:02.836Z,54.06
2022-12-04T02:31:48.939Z,54.15
2022-12-04T02:34:36.283Z,53.41
2022-12-04T02:37:23.598Z,53.02
2022-12-04T02:40:24.985Z,52.47
2022-12-04T02:43:21.306Z,52.47
2022-12-04T02:46:23.839Z,51.52
2022-12-04T02:49:37.309Z,50.92
2022-12-04T02:56:08.594Z,49.57
2022-12-04T02:59:00.097Z,53.72
2022-12-04T03:02:07.245Z,54.72
2022-12-04T03:05:02.690Z,55.38
2022-12-04T03:08:44.971Z,55.89
2022-12-04T03:11:48.654Z,56.43
2022-12-04T03:14:33.946Z,56.20
2022-12-04T03:17:21.022Z,56.17
2022-12-04T03:20:14.181Z,55.99
2022-12-04T03:23:01.955Z,55.93
2022-12-04T03:25:54.592Z,54.25
2022-12-04T03:28:50.400Z,55.65
2022-12-04T03:38:10.363Z,59.27
2022-12-04T03:40:53.988Z,60.92
2022-12-04T03:43:50.688Z,60.90
2022-12-04T03:46:44.161Z,62.92
2022-12-04T03:49:32.881Z,65.92
2022-12-04T03:52:31.589Z,67.52
2022-12-04T03:55:26.773Z,68.70
2022-12-04T04:01:39.969Z,68.42
2022-12-04T04:04:27.120Z,68.05
2022-12-04T04:07:36.174Z,67.94
2022-12-04T04:10:19.094Z,68.98
2022-12-04T04:13:20.666Z,69.16
2022-12-04T04:16:23.838Z,68.87
2022-12-04T04:19:33.391Z,68.97
2022-12-04T04:22:38.739Z,68.56
2022-12-04T04:25:34.262Z,68.30
2022-12-04T04:28:11.330Z,68.45
2022-12-04T04:30:49.438Z,67.78
2022-12-04T04:33:30.088Z,68.44
2022-12-04T04:36:29.059Z,69.13
2022-12-04T04:39:17.458Z,70.59
2022-12-04T04:42:11.755Z,71.46
2022-12-04T04:44:59.862Z,71.86
2022-12-04T04:53:58.861Z,72.32
2022-12-04T04:56:38.204Z,73.39
2022-12-04T04:59:39.997Z,73.26
2022-12-04T05:02:34.744Z,73.39
2022-12-04T05:05:21.638Z,72.95
2022-12-04T05:08:14.023Z,72.98
2022-12-04T05:11:15.541Z,73.27
2022-12-04T05:14:14.336Z,73.05
2022-12-04T05:17:01.848Z,73.63
2022-12-04T05:20:05.637Z,73.95
2022-12-04T05:22:57.792Z,73.69
2022-12-04T05:25:35.858Z,73.85
2022-12-04T05:28:25.140Z,73.72
2022-12-04T05:31:17.243Z,73.82
2022-12-04T05:34:04.704Z,74.29
2022-12-04T05:36:50.064Z,74.22
2022-12-04T05:39:58.870Z,74.57
2022-12-04T05:42:43.638Z,74.85
2022-12-04T05:45:33.669Z,74.43
2022-12-04T05:48:22.147Z,73.87
2022-12-04T05:51:15.073Z,74.27
2022-12-04T05:53:52.522Z,74.91
2022-12-04T05:56:40.825Z,74.83
2022-12-04T05:59:27.766Z,75.20
2022-12-04T06:03:11.747Z,74.96
2022-12-04T06:09:26.901Z,75.49
2022-12-04T06:12:26.886Z,76.15
2022-12-04T06:18:16.399Z,76.71
2022-12-04T06:21:10.409Z,76.29
2022-12-04T06:24:13.890Z,76.68
2022-12-04T06:30:34.158Z,76.85
2022-12-04T06:33:41.625Z,76.66
2022-12-04T06:36:34.123Z,77.05
2022-12-04T06:39:21.706Z,77.15
2022-12-04T06:42:15.732Z,76.91
2022-12-04T06:45:02.278Z,77.35
2022-12-04T06:50:47.743Z,77.61
2022-12-04T06:53:31.363Z,78.04
2022-12-04T06:56:26.071Z,78.07
2022-12-04T06:59:12.573Z,77.66
2022-12-04T07:05:01.393Z,78.18
2022-12-04T07:07:48.645Z,77.75
2022-12-04T07:10:31.360Z,77.42
2022-12-04T07:13:19.879Z,77.35
2022-12-04T07:16:09.469Z,77.20
2022-12-04T07:18:48.173Z,76.49
2022-12-04T07:21:23.720Z,76.61
2022-12-04T07:26:58.264Z,75.26
2022-12-04T07:29:44.914Z,75.48
2022-12-04T07:32:28.806Z,75.39
2022-12-04T07:35:07.323Z,75.34
2022-12-04T07:37:52.409Z,75.04
2022-12-04T07:40:53.889Z,75.00
2022-12-04T07:43:55.419Z,74.81
2022-12-04T07:46:46.974Z,74.16
2022-12-04T07:49:29.774Z,74.00
2022-12-04T07:52:23.746Z,72.18
2022-12-04T08:01:35.819Z,69.20
2022-12-04T08:04:15.123Z,68.42
2022-12-04T08:10:21.176Z,68.17
2022-12-04T08:13:15.612Z,67.61
2022-12-04T08:16:09.190Z,67.21
2022-12-04T08:18:47.593Z,66.67
2022-12-04T08:21:42.037Z,66.54
2022-12-04T08:24:49.836Z,66.31
2022-12-04T08:27:55.391Z,66.45
2022-12-04T08:30:34.960Z,66.70
2022-12-04T08:33:31.847Z,66.77
2022-12-04T08:36:27.465Z,67.24
2022-12-04T08:39:14.323Z,67.52
2022-12-04T08:41:57.283Z,67.71
2022-12-04T08:44:38.309Z,67.60
2022-12-04T08:53:52.419Z,67.87
2022-12-04T08:56:39.171Z,68.23
2022-12-04T08:59:24.480Z,68.04
2022-12-04T09:02:15.517Z,67.44
2022-12-04T09:04:52.680Z,67.65
2022-12-04T09:07:52.335Z,68.02
2022-12-04T09:13:29.188Z,68.30
2022-12-04T09:16:12.230Z,67.67
2022-12-04T09:19:31.754Z,67.06
2022-12-04T09:22:18.374Z,66.94
2022-12-04T09:25:20.411Z,66.27
2022-12-04T09:28:18.378Z,66.14
2022-12-04T09:31:16.516Z,66.71
2022-12-04T09:34:12.362Z,67.00
2022-12-04T09:39:49.982Z,67.25
2022-12-04T09:46:08.284Z,67.99
2022-12-04T09:48:57.502Z,68.84
2022-12-04T09:51:40.789Z,68.67
2022-12-04T09:54:31.901Z,68.84
2022-12-04T09:57:22.734Z,68.79
2022-12-04T10:00:18.509Z,68.82
2022-12-04T10:03:12.595Z,69.31
2022-12-04T10:06:11.531Z,68.98
2022-12-04T10:13:03.435Z,69.94
2022-12-04T10:19:25.175Z,71.36
2022-12-04T10:22:15.004Z,71.59
2022-12-04T10:24:51.191Z,71.53
2022-12-04T10:28:15.761Z,71.21
2022-12-04T10:31:09.058Z,71.45
2022-12-04T10:33:47.223Z,71.24
2022-12-04T10:36:27.924Z,71.73
2022-12-04T10:39:04.180Z,71.89
2022-12-04T10:41:50.030Z,71.41
2022-12-04T10:44:24.530Z,71.18
2022-12-04T10:47:02.111Z,71.03
2022-12-04T10:49:41.897Z,71.30
2022-12-04T10:52:16.835Z,71.65
2022-12-04T10:54:54.201Z,72.02
2022-12-04T10:57:27.690Z,71.64
2022-12-04T11:00:01.042Z,71.42
2022-12-04T11:02:43.412Z,71.30
2022-12-04T11:05:30.611Z,70.89
2022-12-04T11:08:05.887Z,71.28
2022-12-04T11:16:43.686Z,70.24
2022-12-04T11:19:26.358Z,69.42
2022-12-04T11:31:27.150Z,72.47
2022-12-04T11:34:05.067Z,72.71
2022-12-04T11:36:42.934Z,72.61
2022-12-04T11:39:23.064Z,72.88
2022-12-04T11:42:08.537Z,73.20
2022-12-04T11:44:39.748Z,73.23
2022-12-04T11:47:23.345Z,73.92
2022-12-04T11:50:21.331Z,73.79
2022-12-04T11:53:06.486Z,74.18
2022-12-04T11:55:52.620Z,74.45
2022-12-04T11:59:10.882Z,74.36
2022-12-04T12:02:26.445Z,74.08
2022-12-04T12:05:17.952Z,74.41
2022-12-04T12:08:03.719Z,74.35
2022-12-04T12:10:51.031Z,74.38
2022-12-04T12:13:37.774Z,74.45
2022-12-04T12:16:20.068Z,74.54
2022-12-04T12:19:04.793Z,74.80
2022-12-04T12:22:19.374Z,74.57
2022-12-04T12:25:03.528Z,74.76
2022-12-04T12:27:53.031Z,74.19
2022-12-04T12:30:25.905Z,74.20
2022-12-04T12:33:16.015Z,74.65
2022-12-04T12:35:59.815Z,74.98
2022-12-04T12:38:36.244Z,74.86
2022-12-04T12:41:14.986Z,75.23
2022-12-04T12:43:54.381Z,75.21
2022-12-04T12:47:46.905Z,75.43
2022-12-04T12:54:26.018Z,75.39
2022-12-04T13:00:32.245Z,75.70
2022-12-04T13:03:30.029Z,75.99
2022-12-04T13:06:13.956Z,76.16
2022-12-04T13:09:23.656Z,75.87
2022-12-04T13:12:12.287Z,75.77
2022-12-04T13:14:50.852Z,76.18
2022-12-04T13:17:53.649Z,76.27
2022-12-04T13:20:42.907Z,76.46
2022-12-04T13:23:36.500Z,76.03
2022-12-04T13:26:30.229Z,75.96
2022-12-04T13:29:49.839Z,75.20
2022-12-04T13:41:06.763Z,75.13
2022-12-04T13:44:08.168Z,75.44
2022-12-04T13:47:46.299Z,75.99
2022-12-04T13:54:58.414Z,75.94
2022-12-04T13:57:38.097Z,75.85
2022-12-04T14:00:37.216Z,75.59
2022-12-04T14:03:31.874Z,75.63
2022-12-04T14:06:17.943Z,75.86
2022-12-04T14:09:00.234Z,75.90
2022-12-04T14:12:06.974Z,75.94
2022-12-04T14:14:51.263Z,75.73
2022-12-04T14:17:34.809Z,75.93
2022-12-04T14:20:29.283Z,75.99
2022-12-04T14:23:37.390Z,76.30
2022-12-04T14:27:03.563Z,76.27
2022-12-04T14:30:08.059Z,75.90
2022-12-04T14:32:55.783Z,75.75
2022-12-04T14:35:41.331Z,75.83
2022-12-04T14:38:29.129Z,75.06
2022-12-04T14:41:16.219Z,75.43
2022-12-04T14:44:04.172Z,76.32
2022-12-04T14:47:15.184Z,76.68
2022-12-04T14:50:13.753Z,76.56
2022-12-04T14:53:11.046Z,76.64
2022-12-04T14:56:20.638Z,76.11
2022-12-04T14:59:27.699Z,75.94
2022-12-04T15:02:28.671Z,76.05
2022-12-04T15:05:14.599Z,76.04
2022-12-04T15:08:01.840Z,76.02
2022-12-04T15:10:54.936Z,76.11
2022-12-04T15:14:16.914Z,76.20
2022-12-04T15:17:11.114Z,75.97
2022-12-04T15:20:05.352Z,75.78
2022-12-04T15:22:42.123Z,76.34
2022-12-04T15:25:31.692Z,76.24
2022-12-04T15:28:24.299Z,76.01
2022-12-04T15:31:08.299Z,76.10
2022-12-04T15:34:03.349Z,76.17
2022-12-04T15:37:08.034Z,76.40
2022-12-04T15:40:20.072Z,76.57
2022-12-04T15:43:41.049Z,75.81
2022-12-04T15:46:33.828Z,75.18
2022-12-04T15:52:41.577Z,76.27
2022-12-04T15:55:35.793Z,76.19
2022-12-04T16:01:32.556Z,76.07
2022-12-04T16:04:12.166Z,75.72
2022-12-04T16:10:33.637Z,76.01
2022-12-04T16:13:49.146Z,75.76
2022-12-04T16:16:39.141Z,75.93
2022-12-04T16:19:16.432Z,75.87
2022-12-04T16:22:20.837Z,75.82
2022-12-04T16:24:56.991Z,75.80
2022-12-04T16:30:38.971Z,76.46
2022-12-04T16:33:24.628Z,76.82
2022-12-04T16:36:13.138Z,76.71
2022-12-04T16:38:59.713Z,76.83
2022-12-04T16:41:45.140Z,77.04
2022-12-04T16:44:23.170Z,76.94
2022-12-04T16:47:25.290Z,76.79
2022-12-04T16:50:16.283Z,77.01
2022-12-04T16:52:59.047Z,77.54
2022-12-04T16:58:39.828Z,77.58
2022-12-04T17:01:34.943Z,77.35
2022-12-04T17:04:19.325Z,77.31
2022-12-04T17:06:58.172Z,77.59
2022-12-04T17:09:52.562Z,77.79
2022-12-04T17:12:30.174Z,77.98
2022-12-04T17:15:15.944Z,78.34
2022-12-04T17:17:57.961Z,78.46
2022-12-04T17:20:56.546Z,78.05
2022-12-04T17:23:53.922Z,77.91
2022-12-04T17:26:38.873Z,77.74
2022-12-04T17:29:26.405Z,77.76
2022-12-04T17:32:27.929Z,77.63
2022-12-04T17:38:46.488Z,77.63
2022-12-04T17:41:31.047Z,77.22
2022-12-04T17:44:24.508Z,77.24
2022-12-04T17:47:02.365Z,77.06
2022-12-04T17:49:41.652Z,76.63
2022-12-04T17:52:30.480Z,76.94
2022-12-04T17:55:27.757Z,77.05
2022-12-04T17:58:25.505Z,76.93
2022-12-04T18:01:03.723Z,76.44
2022-12-04T18:03:50.067Z,76.25
2022-12-04T18:06:29.914Z,76.64
2022-12-04T18:09:39.002Z,77.35
2022-12-04T18:12:27.754Z,77.87
2022-12-04T18:15:08.945Z,77.79
2022-12-04T18:18:15.905Z,77.68
2022-12-04T18:23:58.567Z,77.21
2022-12-04T18:27:00.023Z,76.96
2022-12-04T18:29:53.935Z,76.75
2022-12-04T18:32:41.706Z,76.79
2022-12-04T18:35:26.850Z,77.16
2022-12-04T18:38:18.457Z,77.68
2022-12-04T18:41:01.122Z,77.29
2022-12-04T18:43:47.780Z,77.17
2022-12-04T18:46:38.126Z,77.09
2022-12-04T18:49:52.411Z,76.96
2022-12-04T18:52:54.524Z,76.82
2022-12-04T18:55:33.249Z,76.96
2022-12-04T18:58:09.831Z,76.50
2022-12-04T19:01:13.799Z,76.60
2022-12-04T19:04:25.955Z,76.41
2022-12-04T19:07:37.248Z,76.32
2022-12-04T19:10:34.333Z,76.02
2022-12-04T19:16:28.436Z,75.53
2022-12-04T19:19:31.345Z,75.82
2022-12-04T19:22:17.901Z,76.09
2022-12-04T19:25:03.230Z,75.95
2022-12-04T19:28:07.206Z,76.46
2022-12-04T19:30:46.706Z,76.25
2022-12-04T19:33:26.693Z,76.37
2022-12-04T19:36:52.811Z,76.58
2022-12-04T19:39:32.452Z,77.03
2022-12-04T19:42:25.397Z,76.85
2022-12-04T19:45:22.234Z,76.91
2022-12-04T19:48:07.293Z,77.04
2022-12-04T19:51:01.272Z,76.98
2022-12-04T19:53:56.762Z,76.84
2022-12-04T19:59:38.612Z,76.48
2022-12-04T20:02:32.075Z,76.03
2022-12-04T20:05:18.409Z,75.69
2022-12-04T20:11:08.386Z,75.06
2022-12-04T20:13:54.848Z,74.69
2022-12-04T20:16:34.437Z,73.99
2022-12-04T20:19:27.845Z,73.58
2022-12-04T20:22:22.368Z,73.11
2022-12-04T20:25:11.016Z,72.94
2022-12-04T20:27:55.638Z,72.77
2022-12-04T20:30:38.315Z,72.78
2022-12-04T20:33:27.090Z,72.80
2022-12-04T20:36:22.876Z,72.81
2022-12-04T20:39:13.252Z,72.96
2022-12-04T20:41:55.454Z,73.13
2022-12-04T20:44:41.875Z,73.22
2022-12-04T20:47:20.696Z,73.36
2022-12-04T20:49:59.632Z,73.07
2022-12-04T20:53:04.927Z,73.17
2022-12-04T20:55:57.094Z,73.12
2022-12-04T20:58:44.787Z,73.12
2022-12-04T21:01:35.464Z,73.94
2022-12-04T21:04:33.752Z,73.44
2022-12-04T21:10:12.264Z,73.59
2022-12-04T21:13:14.108Z,73.40
2022-12-04T21:16:09.113Z,73.95
2022-12-04T21:19:07.359Z,74.49
2022-12-04T21:21:55.479Z,73.84
2022-12-04T21:27:47.498Z,73.50
2022-12-04T21:30:55.643Z,73.09
2022-12-04T21:33:47.922Z,72.85
2022-12-04T21:36:41.583Z,72.37
2022-12-04T21:39:35.753Z,71.34
2022-12-04T21:42:29.403Z,70.93
2022-12-04T21:48:35.105Z,70.13
2022-12-04T21:51:39.826Z,70.40
2022-12-04T21:54:18.872Z,69.87
2022-12-04T21:56:56.612Z,69.72
2022-12-04T21:59:32.625Z,70.07
2022-12-04T22:02:11.844Z,69.93
2022-12-04T22:04:58.195Z,70.07
2022-12-04T22:07:49.809Z,70.03
2022-12-04T22:10:29.397Z,70.23
2022-12-04T22:13:18.431Z,70.02
2022-12-04T22:19:05.708Z,70.42
2022-12-04T22:21:53.507Z,70.93
2022-12-04T22:24:40.829Z,70.36
2022-12-04T22:27:31.978Z,71.09
2022-12-04T22:30:20.862Z,70.60
2022-12-04T22:33:22.829Z,70.55
2022-12-04T22:36:16.181Z,70.57
2022-12-04T22:39:10.673Z,70.49
2022-12-04T22:41:54.096Z,70.56
2022-12-04T22:44:45.122Z,70.73
2022-12-04T22:47:32.966Z,70.43
2022-12-04T22:50:11.516Z,70.08
2022-12-04T22:53:04.280Z,70.49
2022-12-04T22:55:51.215Z,70.61
2022-12-04T22:58:40.280Z,70.76
2022-12-04T23:04:16.547Z,70.32
2022-12-04T23:06:58.450Z,70.34
2022-12-04T23:12:45.671Z,70.15
2022-12-04T23:18:25.384Z,69.96
2022-12-04T23:21:21.917Z,70.04
2022-12-04T23:24:02.165Z,70.26
2022-12-04T23:29:59.901Z,69.91
2022-12-04T23:32:42.449Z,69.77
2022-12-04T23:35:30.213Z,69.95
2022-12-04T23:38:25.273Z,69.84
2022-12-04T23:41:21.094Z,69.95
2022-12-04T23:44:08.578Z,70.29
2022-12-04T23:46:46.170Z,70.65
2022-12-04T23:49:24.935Z,71.50
2022-12-04T23:52:02.795Z,71.01
2022-12-04T23:54:55.578Z,70.01
